Time;durP1;ratioP1;P1;durP2;ratioP2;P2;SDS_P1;SDS_P2;PMS_P1;PMS_P2;Temp;Humidity;BMP_temperature;BMP_pressure;BME280_temperature;BME280_humidity;BME280_pressure;Samples;Min_cycle;Max_cycle;Signal;HPM_P1;HPM_P2
2022/01/07 00:00:48;;;;;;;7.32;2.92;;;;;;;17.83;30.02;100732.75;2065958;28;20700;-69
2022/01/07 00:01:53;;;;;;;5.65;2.83;;;;;;;17.83;29.98;100727.28;2065233;28;20050;-68
2022/01/07 00:03:00;;;;;;;6.93;3.00;;;;;;;17.81;30.08;100729.59;2067400;28;20053;-68
2022/01/07 00:04:07;;;;;;;5.90;2.78;;;;;;;17.81;29.81;100735.06;2066085;28;20061;-68
2022/01/07 00:05:11;;;;;;;5.30;2.83;;;;;;;17.83;29.83;100724.56;2065208;28;20580;-67
2022/01/07 00:06:16;;;;;;;5.07;2.60;;;;;;;17.83;29.79;100732.75;2067339;28;20058;-68
2022/01/07 00:07:21;;;;;;;5.72;2.97;;;;;;;17.84;29.57;100734.38;2067743;28;20045;-67
2022/01/07 00:08:30;;;;;;;;;;;;;;;17.81;29.67;100729.59;2067497;28;20077;-67
2022/01/07 00:09:36;;;;;;;4.88;2.75;;;;;;;17.79;29.69;100742.78;2080715;28;20478;-67
2022/01/07 00:10:40;;;;;;;6.07;2.67;;;;;;;17.78;29.71;100731.06;2077844;28;20060;-66
2022/01/07 00:11:44;;;;;;;6.55;3.00;;;;;;;17.79;29.72;100737.34;2068047;28;20046;-67
2022/01/07 00:12:49;;;;;;;7.93;3.03;;;;;;;17.79;29.49;100735.41;2066641;28;20470;-67
2022/01/07 00:13:55;;;;;;;6.68;2.97;;;;;;;17.79;29.64;100732.66;2064654;28;20053;-66
2022/01/07 00:15:01;;;;;;;12.18;3.00;;;;;;;17.81;29.80;100735.06;2067293;28;20583;-67
2022/01/07 00:16:11;;;;;;;7.35;2.90;;;;;;;17.81;29.54;100735.84;2066234;28;20102;-66
2022/01/07 00:17:17;;;;;;;7.40;3.17;;;;;;;17.79;29.29;100742.78;2070036;28;20054;-67
2022/01/07 00:18:22;;;;;;;5.82;2.85;;;;;;;17.76;29.19;100746.22;2065255;28;20062;-67
2022/01/07 00:19:26;;;;;;;6.72;3.28;;;;;;;17.71;29.18;100747.25;2064879;28;20077;-67
2022/01/07 00:20:31;;;;;;;7.75;2.80;;;;;;;17.68;29.19;100747.13;2066729;28;20053;-66
2022/01/07 00:21:38;;;;;;;5.13;2.60;;;;;;;17.63;29.30;100745.41;2066127;28;20050;-66
2022/01/07 00:22:43;;;;;;;4.60;2.70;;;;;;;17.64;29.21;100746.22;2065117;28;20057;-67
2022/01/07 00:23:48;;;;;;;7.20;3.00;;;;;;;17.57;29.26;100739.38;2064616;28;20054;-67
2022/01/07 00:24:52;;;;;;;8.07;3.40;;;;;;;17.63;29.37;100744.63;2067021;28;20042;-68
2022/01/07 00:25:57;;;;;;;7.80;3.17;;;;;;;17.61;29.15;100753.16;2066192;28;20069;-66
2022/01/07 00:27:03;;;;;;;6.22;2.88;;;;;;;17.60;29.59;100752.38;2065268;28;20049;-67
2022/01/07 00:28:07;;;;;;;8.55;3.95;;;;;;;17.63;29.76;100755.56;2066541;28;20064;-67
2022/01/07 00:29:12;;;;;;;7.47;2.78;;;;;;;17.61;29.56;100747.69;2056936;28;20054;-67
2022/01/07 00:30:18;;;;;;;6.82;3.83;;;;;;;17.62;29.62;100753.94;2065891;28;20069;-67
2022/01/07 00:31:25;;;;;;;6.47;3.50;;;;;;;17.64;29.67;100743.47;2066839;28;20054;-67
2022/01/07 00:32:30;;;;;;;6.65;3.08;;;;;;;17.65;29.68;100758.72;2067637;28;20050;-67
2022/01/07 00:33:37;;;;;;;6.45;3.05;;;;;;;17.62;29.42;100748.47;2066255;28;20073;-67
2022/01/07 00:34:40;;;;;;;7.57;3.85;;;;;;;17.63;29.67;100744.63;2065136;28;20645;-67
2022/01/07 00:35:46;;;;;;;5.95;3.20;;;;;;;17.59;29.43;100744.53;2068945;28;20729;-67
2022/01/07 00:36:52;;;;;;;6.32;2.78;;;;;;;17.59;29.31;100756.25;2070650;28;20050;-67
2022/01/07 00:37:57;;;;;;;7.95;3.63;;;;;;;17.59;29.58;100750.78;2070640;28;20050;-68
2022/01/07 00:39:00;;;;;;;10.20;3.83;;;;;;;17.64;29.79;100746.22;2070168;28;20058;-68
2022/01/07 00:40:06;;;;;;;7.30;3.38;;;;;;;17.62;29.65;100754.78;2070163;28;20057;-67
2022/01/07 00:41:09;;;;;;;6.10;3.20;;;;;;;17.60;29.49;100752.38;2069554;28;20053;-68
2022/01/07 00:42:16;;;;;;;7.63;3.83;;;;;;;17.58;29.61;100751.91;2077951;28;20057;-67
2022/01/07 00:43:22;;;;;;;11.48;7.63;;;;;;;17.60;29.87;100757.81;2077441;28;20042;-67
2022/01/07 00:44:26;;;;;;;9.60;6.22;;;;;;;17.60;29.89;100757.81;2070599;28;20085;-69
2022/01/07 00:45:31;;;;;;;6.95;4.43;;;;;;;17.57;29.82;100755.78;2069609;28;20058;-68
2022/01/07 00:46:40;;;;;;;7.03;3.75;;;;;;;17.60;29.89;100752.38;2068919;28;20050;-67
2022/01/07 00:47:49;;;;;;;6.93;3.08;;;;;;;17.59;29.67;100750.78;2069122;28;20053;-67
2022/01/07 00:48:54;;;;;;;6.45;3.05;;;;;;;17.56;29.81;100756.94;2069898;28;20493;-67
2022/01/07 00:49:58;;;;;;;6.80;3.10;;;;;;;17.55;29.92;100758.06;2070047;28;20049;-67
2022/01/07 00:51:03;;;;;;;6.45;3.15;;;;;;;17.57;29.81;100757.72;2070234;28;20045;-67
2022/01/07 00:52:08;;;;;;;8.23;3.65;;;;;;;17.60;29.88;100768.75;2070481;28;20053;-67
2022/01/07 00:53:12;;;;;;;5.63;3.20;;;;;;;17.58;29.73;100754.63;2070555;28;20054;-68
2022/01/07 00:54:16;;;;;;;7.07;3.33;;;;;;;17.58;29.68;100759.31;2069926;28;20057;-68
2022/01/07 00:55:20;;;;;;;11.85;3.20;;;;;;;17.56;29.78;100759.66;2070328;28;20076;-68
2022/01/07 00:56:24;;;;;;;7.70;2.97;;;;;;;17.54;30.14;100755.66;2070750;28;20057;-68
2022/01/07 00:57:29;;;;;;;18.60;12.90;;;;;;;17.54;30.12;100759.19;2070794;28;20042;-68
2022/01/07 00:58:33;;;;;;;13.43;8.65;;;;;;;17.57;30.05;100758.50;2070311;28;20701;-67
2022/01/07 00:59:42;;;;;;;9.23;6.05;;;;;;;17.56;30.06;100756.13;2069916;28;20054;-68
2022/01/07 01:00:48;;;;;;;11.82;6.97;;;;;;;17.59;29.88;100758.19;2070416;28;20057;-68
2022/01/07 01:01:53;;;;;;;12.80;8.05;;;;;;;17.58;30.08;100745.63;2070262;28;20101;-66
2022/01/07 01:03:00;;;;;;;11.13;6.50;;;;;;;17.59;30.06;100750.78;2070339;28;20060;-67
2022/01/07 01:04:04;;;;;;;12.20;7.18;;;;;;;17.58;30.05;100751.91;2070206;28;20057;-67
2022/01/07 01:05:11;;;;;;;9.10;6.03;;;;;;;17.57;30.07;100752.25;2070587;28;20058;-67
2022/01/07 01:06:17;;;;;;;7.32;4.32;;;;;;;17.53;30.22;100756.81;2069482;28;20057;-67
2022/01/07 01:07:20;;;;;;;10.55;6.05;;;;;;;17.55;30.04;100744.41;2068992;28;20509;-67
2022/01/07 01:08:25;;;;;;;9.13;6.03;;;;;;;17.55;30.32;100743.59;2070173;28;20050;-67
2022/01/07 01:09:29;;;;;;;13.48;9.65;;;;;;;17.57;30.42;100742.13;2070420;28;20062;-66
2022/01/07 01:10:34;;;;;;;8.43;6.38;;;;;;;17.58;30.27;100738.25;2070580;28;20053;-67
2022/01/07 01:11:38;;;;;;;10.43;6.45;;;;;;;17.59;30.21;100739.06;2069711;28;20058;-67
2022/01/07 01:12:46;;;;;;;8.77;4.88;;;;;;;17.59;30.20;100734.38;2069875;28;20060;-68
2022/01/07 01:13:54;;;;;;;7.95;4.93;;;;;;;17.59;30.52;100739.84;2070208;28;20056;-68
2022/01/07 01:14:58;;;;;;;7.25;4.18;;;;;;;17.50;30.33;100725.47;2070114;28;20053;-67
2022/01/07 01:16:05;;;;;;;7.85;4.80;;;;;;;17.58;30.79;100738.25;2070195;28;20038;-67
2022/01/07 01:17:14;;;;;;;10.93;5.63;;;;;;;17.51;30.41;100735.28;2069782;28;20057;-68
2022/01/07 01:18:19;;;;;;;8.32;4.40;;;;;;;17.57;30.37;100742.13;2076961;28;20041;-67
2022/01/07 01:19:23;;;;;;;11.45;5.70;;;;;;;17.59;30.41;100737.13;2077037;28;20243;-68
2022/01/07 01:20:31;;;;;;;8.15;4.70;;;;;;;17.55;30.35;100741.69;2070117;28;20046;-67
2022/01/07 01:21:35;;;;;;;7.60;4.00;;;;;;;17.55;30.35;100743.59;2070351;28;20052;-68
2022/01/07 01:22:41;;;;;;;7.60;4.55;;;;;;;17.54;30.18;100731.88;2070000;28;20054;-67
2022/01/07 01:23:45;;;;;;;9.07;4.07;;;;;;;17.56;30.36;100737.00;2069729;28;20057;-68
2022/01/07 01:24:50;;;;;;;9.05;4.30;;;;;;;17.47;30.33;100728.88;2069451;28;20766;-67
2022/01/07 01:25:57;;;;;;;7.38;4.88;;;;;;;17.57;30.08;100731.19;2070135;28;20046;-67
2022/01/07 01:27:04;;;;;;;7.20;3.90;;;;;;;17.57;30.22;100731.19;2069436;28;20054;-67
2022/01/07 01:28:08;;;;;;;7.15;3.72;;;;;;;17.58;29.90;100737.44;2068976;28;20057;-67
2022/01/07 01:29:11;;;;;;;7.18;4.00;;;;;;;17.57;30.16;100728.47;2070542;28;20053;-67
2022/01/07 01:30:18;;;;;;;7.68;3.70;;;;;;;17.57;30.12;100728.47;2076402;28;20053;-67
2022/01/07 01:31:23;;;;;;;7.70;4.00;;;;;;;17.53;30.41;100721.31;2069512;28;20046;-67
2022/01/07 01:32:28;;;;;;;7.35;3.38;;;;;;;17.54;30.39;100726.41;2068300;28;20046;-66
2022/01/07 01:33:36;;;;;;;7.43;3.53;;;;;;;17.56;30.25;100718.69;2070288;28;20502;-67
2022/01/07 01:34:39;;;;;;;10.02;5.95;;;;;;;17.57;30.42;100709.34;2070338;28;20050;-67
2022/01/07 01:35:46;;;;;;;7.88;4.30;;;;;;;17.57;30.46;100714.00;2070170;28;20046;-67
2022/01/07 01:36:50;;;;;;;6.78;3.97;;;;;;;17.55;30.19;100722.56;2070403;28;20050;-68
2022/01/07 01:37:56;;;;;;;6.07;3.28;;;;;;;17.54;30.12;100710.03;2070146;28;20050;-67
2022/01/07 01:38:59;;;;;;;6.40;3.47;;;;;;;17.56;30.35;100707.75;2069208;28;20046;-67
2022/01/07 01:40:04;;;;;;;8.25;4.82;;;;;;;17.56;30.19;100704.22;2069531;28;20061;-67
2022/01/07 01:41:09;;;;;;;9.63;4.60;;;;;;;17.58;30.14;100708.19;2070108;28;20057;-67
2022/01/07 01:42:16;;;;;;;8.73;4.38;;;;;;;17.53;30.20;100694.78;2070363;28;20054;-67
2022/01/07 01:43:21;;;;;;;5.97;3.63;;;;;;;17.56;30.21;100698.75;2070474;28;20057;-67
2022/01/07 01:44:27;;;;;;;5.40;3.28;;;;;;;17.57;30.12;100706.59;2070094;28;20065;-67
2022/01/07 01:45:31;;;;;;;6.55;3.10;;;;;;;17.55;30.04;100700.72;2069754;28;20159;-67
2022/01/07 01:46:36;;;;;;;5.45;3.17;;;;;;;17.52;29.98;100700.56;2069690;28;20045;-67
2022/01/07 01:47:44;;;;;;;5.90;3.58;;;;;;;17.51;30.25;100705.25;2070249;28;20186;-67
2022/01/07 01:48:47;;;;;;;6.32;3.90;;;;;;;17.51;30.16;100705.25;2077961;28;20041;-67
2022/01/07 01:49:53;;;;;;;7.00;3.38;;;;;;;17.51;30.02;100707.97;2076938;28;20057;-67
2022/01/07 01:50:56;;;;;;;4.80;2.97;;;;;;;17.49;30.14;100707.50;2068962;28;20058;-67
2022/01/07 01:52:02;;;;;;;5.07;2.92;;;;;;;17.47;30.28;100708.97;2069174;28;20038;-67
2022/01/07 01:53:05;;;;;;;4.68;2.58;;;;;;;17.47;30.43;100715.22;2070312;28;20076;-68
2022/01/07 01:54:10;;;;;;;4.55;2.63;;;;;;;17.46;30.16;100708.19;2070632;28;20054;-68
2022/01/07 01:55:18;;;;;;;6.03;2.92;;;;;;;17.43;30.46;100694.38;2077883;28;20053;-66
2022/01/07 01:56:26;;;;;;;6.90;2.97;;;;;;;17.44;30.30;100699.53;2077644;28;20053;-67
2022/01/07 01:57:31;;;;;;;4.60;2.80;;;;;;;17.44;30.40;100706.94;2071390;28;20054;-66
2022/01/07 01:58:35;;;;;;;4.95;2.65;;;;;;;17.43;30.49;100706.13;2071182;28;20755;-66
2022/01/07 01:59:39;;;;;;;5.78;2.78;;;;;;;17.43;30.45;100703.41;2071075;28;20050;-67
2022/01/07 02:00:44;;;;;;;7.20;3.05;;;;;;;17.42;30.61;100701.00;2079091;28;20620;-67
2022/01/07 02:01:49;;;;;;;4.13;2.35;;;;;;;17.44;30.54;100699.53;2070762;28;20741;-67
2022/01/07 02:02:56;;;;;;;5.15;3.20;;;;;;;17.43;30.55;100697.94;2070770;28;20046;-66
2022/01/07 02:03:59;;;;;;;6.28;2.90;;;;;;;17.46;30.67;100702.72;2070402;28;20042;-66
2022/01/07 02:05:06;;;;;;;6.38;3.10;;;;;;;17.45;30.46;100694.84;2070201;28;20050;-67
2022/01/07 02:06:14;;;;;;;7.35;3.22;;;;;;;17.45;30.62;100697.59;2071429;28;20064;-66
2022/01/07 02:07:20;;;;;;;6.30;2.80;;;;;;;17.46;30.53;100696.44;2071572;28;20053;-68
2022/01/07 02:08:25;;;;;;;6.55;3.30;;;;;;;17.45;30.46;100701.13;2078990;28;20444;-67
2022/01/07 02:09:35;;;;;;;4.35;2.83;;;;;;;17.48;30.73;100696.91;2078198;28;20053;-67
2022/01/07 02:10:37;;;;;;;3.95;2.50;;;;;;;17.45;30.51;100689.41;2071943;28;20064;-67
2022/01/07 02:11:42;;;;;;;4.95;2.45;;;;;;;17.43;30.39;100692.47;2063524;28;20051;-66
2022/01/07 02:12:46;;;;;;;8.38;3.50;;;;;;;17.43;30.55;100692.47;2063223;28;20061;-67
2022/01/07 02:13:51;;;;;;;5.88;2.92;;;;;;;17.42;30.59;100695.53;2063176;28;20043;-66
2022/01/07 02:14:58;;;;;;;5.88;2.70;;;;;;;17.43;30.71;100687.03;2063450;28;20046;-67
2022/01/07 02:16:00;;;;;;;4.00;2.40;;;;;;;17.44;30.92;100685.09;2070586;28;20050;-67
2022/01/07 02:17:09;;;;;;;5.95;3.00;;;;;;;17.44;30.59;100685.09;2070108;28;20057;-66
2022/01/07 02:18:16;;;;;;;5.07;2.53;;;;;;;17.44;30.82;100688.59;2062022;28;20517;-66
2022/01/07 02:19:21;;;;;;;5.10;2.80;;;;;;;17.46;30.98;100677.31;2063588;28;20050;-66
2022/01/07 02:20:28;;;;;;;6.25;2.75;;;;;;;17.49;30.87;100691.13;2063625;28;20521;-67
2022/01/07 02:21:37;;;;;;;4.38;2.53;;;;;;;17.48;30.88;100691.44;2061924;28;20057;-67
2022/01/07 02:22:42;;;;;;;4.10;2.33;;;;;;;17.50;30.92;100687.25;2063062;28;20046;-67
2022/01/07 02:23:47;;;;;;;4.28;2.53;;;;;;;17.48;30.86;100694.97;2063145;28;20043;-66
2022/01/07 02:24:51;;;;;;;3.70;2.13;;;;;;;17.49;30.75;100682.94;2063543;28;20050;-67
2022/01/07 02:25:59;;;;;;;8.65;2.40;;;;;;;17.47;30.68;100678.94;2070872;28;20053;-67
2022/01/07 02:27:06;;;;;;;4.07;2.05;;;;;;;17.45;30.91;100689.41;2069359;28;20056;-66
2022/01/07 02:28:14;;;;;;;4.15;2.10;;;;;;;17.40;30.74;100684.97;2070966;28;20053;-67
2022/01/07 02:29:21;;;;;;;3.70;2.05;;;;;;;17.42;30.59;100685.41;2068711;28;20054;-67
2022/01/07 02:30:31;;;;;;;3.67;2.03;;;;;;;17.41;30.70;100691.22;2063811;28;20066;-67
2022/01/07 02:31:34;;;;;;;4.10;2.40;;;;;;;17.41;30.76;100683.81;2064033;28;20061;-67
2022/01/07 02:32:40;;;;;;;4.32;1.90;;;;;;;17.40;30.52;100687.69;2063461;28;20410;-67
2022/01/07 02:33:47;;;;;;;4.30;2.17;;;;;;;17.42;30.94;100682.69;2062963;28;20050;-67
2022/01/07 02:34:51;;;;;;;9.77;2.15;;;;;;;17.44;30.90;100683.16;2070727;28;20050;-69
2022/01/07 02:35:57;;;;;;;6.45;2.40;;;;;;;17.46;30.88;100682.78;2068459;28;20433;-67
2022/01/07 02:37:01;;;;;;;3.83;1.80;;;;;;;17.44;30.66;100687.81;2062517;28;20533;-66
2022/01/07 02:38:06;;;;;;;3.40;1.92;;;;;;;17.46;30.76;100697.25;2063147;28;20403;-68
2022/01/07 02:39:10;;;;;;;4.60;1.77;;;;;;;17.44;30.71;100694.06;2063905;28;20054;-67
2022/01/07 02:40:16;;;;;;;4.35;2.10;;;;;;;17.43;30.60;100687.03;2062946;28;20053;-67
2022/01/07 02:41:21;;;;;;;5.13;2.45;;;;;;;17.43;30.85;100681.56;2063042;28;20038;-67
2022/01/07 02:42:26;;;;;;;4.97;2.28;;;;;;;17.44;30.76;100672.22;2063181;28;20069;-66
2022/01/07 02:44:52;;;;;;;6.20;2.10;;;;;;;17.42;30.67;100677.22;2063084;28;20050;-67
2022/01/07 02:45:55;;;;;;;3.55;2.00;;;;;;;17.38;30.54;100659.94;2070081;28;20057;-67
2022/01/07 02:47:00;;;;;;;3.83;2.03;;;;;;;17.42;30.66;100668.22;2069910;28;20053;-67
2022/01/07 02:48:04;;;;;;;3.63;2.25;;;;;;;17.42;30.38;100662.78;2062927;28;20050;-66
2022/01/07 02:49:11;;;;;;;3.10;1.67;;;;;;;17.40;30.37;100670.50;2063567;28;20542;-67
2022/01/07 02:50:14;;;;;;;4.28;1.90;;;;;;;17.38;30.60;100665.41;2063117;28;20109;-66
2022/01/07 02:51:22;;;;;;;3.75;1.73;;;;;;;17.36;30.46;100670.38;2062406;28;20483;-67
2022/01/07 02:52:26;;;;;;;4.00;1.70;;;;;;;17.38;30.56;100666.19;2062511;28;20082;-67
2022/01/07 02:53:31;;;;;;;4.03;2.10;;;;;;;17.39;30.40;100664.25;2062719;28;20051;-67
2022/01/07 02:54:35;;;;;;;3.15;1.75;;;;;;;17.35;30.63;100674.25;2062930;28;20054;-66
2022/01/07 02:55:42;;;;;;;4.93;1.80;;;;;;;17.33;30.65;100668.34;2063642;28;20629;-67
2022/01/07 02:56:45;;;;;;;3.20;1.77;;;;;;;17.33;30.46;100671.06;2070337;28;20053;-67
2022/01/07 02:57:52;;;;;;;3.45;1.55;;;;;;;17.32;30.26;100674.94;2069743;28;20046;-67
2022/01/07 02:58:57;;;;;;;4.13;2.03;;;;;;;17.35;30.40;100675.06;2062944;28;20058;-67
2022/01/07 03:00:05;;;;;;;3.30;1.65;;;;;;;17.37;30.58;100672.78;2062975;28;20053;-68
2022/01/07 03:01:11;;;;;;;4.00;1.60;;;;;;;17.37;30.30;100677.47;2062959;28;20069;-67
2022/01/07 03:02:14;;;;;;;3.42;1.48;;;;;;;17.38;30.26;100673.59;2063103;28;20058;-68
2022/01/07 03:03:20;;;;;;;2.92;1.60;;;;;;;17.36;30.49;100670.38;2062772;28;20610;-68
2022/01/07 03:04:24;;;;;;;4.47;1.60;;;;;;;17.36;30.46;100670.38;2070410;28;20391;-67
2022/01/07 03:05:31;;;;;;;4.07;1.80;;;;;;;17.33;30.59;100677.34;2061946;28;20411;-67
2022/01/07 03:06:38;;;;;;;2.70;1.40;;;;;;;17.31;30.59;100673.38;2061832;28;20054;-67
2022/01/07 03:07:44;;;;;;;4.22;1.60;;;;;;;17.30;30.37;100667.13;2061426;28;20065;-67
2022/01/07 03:08:54;;;;;;;3.42;1.60;;;;;;;17.31;30.54;100671.44;2061645;28;20300;-67
2022/01/07 03:09:59;;;;;;;3.53;1.73;;;;;;;17.33;30.89;100673.81;2062113;28;20073;-67
2022/01/07 03:11:06;;;;;;;3.10;1.40;;;;;;;17.33;30.43;100660.97;2066039;28;20046;-67
2022/01/07 03:12:11;;;;;;;4.15;1.73;;;;;;;17.32;30.87;100653.09;2070833;28;20049;-67
2022/01/07 03:13:15;;;;;;;3.33;2.08;;;;;;;17.31;30.61;100651.53;2071264;28;20058;-67
2022/01/07 03:14:18;;;;;;;3.30;1.85;;;;;;;17.32;30.64;100656.63;2070089;28;20181;-66
2022/01/07 03:15:23;;;;;;;8.85;5.40;;;;;;;17.31;30.75;100654.25;2061663;28;20058;-67
2022/01/07 03:16:26;;;;;;;6.10;3.42;;;;;;;17.30;30.92;100649.91;2069848;28;20062;-67
2022/01/07 03:17:32;;;;;;;5.40;2.75;;;;;;;17.30;30.84;100649.91;2070720;28;20060;-67
2022/01/07 03:18:36;;;;;;;6.25;4.30;;;;;;;17.32;30.88;100647.66;2070904;28;20050;-67
2022/01/07 03:19:40;;;;;;;4.65;2.60;;;;;;;17.29;31.05;100651.06;2070541;28;20060;-67
2022/01/07 03:20:46;;;;;;;5.38;2.15;;;;;;;17.30;30.88;100650.72;2071141;28;20057;-66
2022/01/07 03:21:54;;;;;;;5.30;2.60;;;;;;;17.31;30.81;100646.84;2070579;28;20581;-67
2022/01/07 03:22:59;;;;;;;4.07;2.10;;;;;;;17.34;30.99;100650.84;2071111;28;20049;-67
2022/01/07 03:24:05;;;;;;;3.65;2.30;;;;;;;17.37;31.10;100652.88;2071665;28;20088;-67
2022/01/07 03:25:09;;;;;;;3.45;2.00;;;;;;;17.35;30.70;100644.22;2071192;28;20502;-67
2022/01/07 03:26:16;;;;;;;4.43;2.10;;;;;;;17.34;30.90;100646.16;2071314;28;20050;-67
2022/01/07 03:27:20;;;;;;;5.32;1.95;;;;;;;17.25;30.77;100647.44;2071875;28;20061;-67
2022/01/07 03:28:26;;;;;;;5.63;2.42;;;;;;;17.31;30.90;100655.03;2071006;28;20058;-68
2022/01/07 03:29:29;;;;;;;4.68;1.90;;;;;;;17.32;30.65;100653.09;2078028;28;20052;-67
2022/01/07 03:30:34;;;;;;;5.68;1.95;;;;;;;17.30;30.66;100658.09;2078689;28;20056;-67
2022/01/07 03:31:37;;;;;;;4.47;2.00;;;;;;;17.30;30.74;100655.38;2071174;28;20061;-68
2022/01/07 03:32:42;;;;;;;6.10;2.20;;;;;;;17.29;30.89;100661.97;2070297;28;20050;-68
2022/01/07 03:33:45;;;;;;;5.40;2.10;;;;;;;17.28;30.89;100655.72;2070828;28;20246;-67
2022/01/07 03:34:51;;;;;;;4.45;2.20;;;;;;;17.30;30.71;100660.81;2071115;28;20049;-67
2022/01/07 03:35:54;;;;;;;5.45;2.17;;;;;;;17.29;30.91;100661.97;2070826;28;20057;-68
2022/01/07 03:37:02;;;;;;;5.07;1.98;;;;;;;17.29;31.30;100651.06;2070564;28;20386;-66
2022/01/07 03:38:05;;;;;;;5.68;2.15;;;;;;;17.30;30.98;100649.91;2070890;28;20088;-67
2022/01/07 03:39:10;;;;;;;3.92;2.20;;;;;;;17.27;31.05;100647.84;2071104;28;20824;-67
2022/01/07 03:40:14;;;;;;;3.53;2.20;;;;;;;17.29;31.08;100648.31;2069445;28;20081;-67
2022/01/07 03:41:19;;;;;;;4.15;2.15;;;;;;;17.29;31.16;100653.78;2070327;28;20056;-67
2022/01/07 03:42:24;;;;;;;5.32;2.20;;;;;;;17.28;31.18;100646.75;2071247;28;20050;-67
2022/01/07 03:43:29;;;;;;;6.38;2.30;;;;;;;17.28;31.32;100647.53;2070287;28;20058;-67
2022/01/07 03:44:33;;;;;;;4.28;2.20;;;;;;;17.29;31.34;100648.31;2070520;28;20064;-67
2022/01/07 03:45:38;;;;;;;5.85;2.17;;;;;;;17.27;31.32;100648.69;2070406;28;20054;-67
2022/01/07 03:46:45;;;;;;;7.22;2.20;;;;;;;17.28;31.31;100654.94;2070272;28;20515;-66
2022/01/07 03:47:51;;;;;;;4.93;2.03;;;;;;;17.29;31.32;100651.06;2070972;28;20054;-67
2022/01/07 03:48:54;;;;;;;4.40;1.95;;;;;;;17.29;31.22;100659.25;2070840;28;20064;-67
2022/01/07 03:49:59;;;;;;;3.72;2.10;;;;;;;17.27;31.11;100651.41;2070622;28;20061;-67
2022/01/07 03:51:04;;;;;;;9.80;1.90;;;;;;;17.28;31.10;100652.22;2078076;28;20046;-68
2022/01/07 03:52:12;;;;;;;6.15;1.98;;;;;;;17.28;31.34;100646.75;2077533;28;20401;-67
2022/01/07 03:53:16;;;;;;;6.68;2.25;;;;;;;17.28;31.36;100653.00;2070925;28;20053;-68
2022/01/07 03:54:19;;;;;;;4.30;2.03;;;;;;;17.29;31.48;100654.56;2071313;28;20425;-67
2022/01/07 03:55:26;;;;;;;4.85;2.20;;;;;;;17.28;31.39;100646.75;2070018;28;20053;-67
2022/01/07 03:56:29;;;;;;;4.22;1.90;;;;;;;17.25;31.20;100641.97;2069740;28;20169;-67
2022/01/07 03:57:34;;;;;;;5.78;1.88;;;;;;;17.26;31.32;100647.06;2070849;28;20058;-69
2022/01/07 03:58:40;;;;;;;4.70;1.90;;;;;;;17.27;31.45;100645.94;2071397;28;20383;-67
2022/01/07 03:59:42;;;;;;;4.97;1.90;;;;;;;17.26;31.22;100649.81;2070377;28;20054;-67
2022/01/07 04:00:47;;;;;;;3.35;1.88;;;;;;;17.26;31.34;100649.00;2069789;28;20057;-67
2022/01/07 04:01:52;;;;;;;4.18;2.00;;;;;;;17.25;31.29;100647.44;2070562;28;20398;-67
2022/01/07 04:02:56;;;;;;;4.55;1.88;;;;;;;17.22;31.26;100642.66;2069802;28;20572;-66
2022/01/07 04:04:00;;;;;;;4.78;1.90;;;;;;;17.25;31.29;100641.97;2070036;28;20045;-66
2022/01/07 04:05:10;;;;;;;5.00;1.80;;;;;;;17.27;31.33;100645.13;2071306;28;20042;-67
2022/01/07 04:06:17;;;;;;;6.20;1.70;;;;;;;17.25;31.54;100639.25;2070828;28;20054;-67
2022/01/07 04:07:24;;;;;;;3.28;1.80;;;;;;;17.24;31.48;100634.88;2071022;28;20041;-67
2022/01/07 04:08:30;;;;;;;4.05;1.70;;;;;;;17.25;31.33;100639.25;2071574;28;20061;-67
2022/01/07 04:09:34;;;;;;;4.18;1.55;;;;;;;17.27;31.15;100642.41;2071220;28;20054;-67
2022/01/07 04:10:40;;;;;;;4.38;1.83;;;;;;;17.20;31.29;100636.72;2070966;28;20052;-67
2022/01/07 04:11:44;;;;;;;3.47;1.60;;;;;;;17.25;31.32;100636.50;2062642;28;20047;-66
2022/01/07 04:12:49;;;;;;;4.18;1.65;;;;;;;17.20;31.45;100639.44;2062427;28;20126;-67
2022/01/07 04:13:53;;;;;;;4.85;2.00;;;;;;;17.24;31.47;100641.19;2062620;28;20050;-67
2022/01/07 04:15:07;;;;;;;4.53;2.25;;;;;;;17.27;31.33;100647.84;2062318;28;20046;-67
2022/01/07 04:16:16;;;;;;;4.32;1.67;;;;;;;17.25;31.24;100633.78;2069770;28;20046;-67
2022/01/07 04:17:20;;;;;;;4.85;1.70;;;;;;;17.24;31.31;100643.09;2069014;28;20069;-67
2022/01/07 04:18:25;;;;;;;5.82;1.88;;;;;;;17.24;31.48;100646.63;2062687;28;20058;-66
2022/01/07 04:19:28;;;;;;;4.80;1.80;;;;;;;17.24;31.24;100634.88;2062307;28;20046;-67
2022/01/07 04:20:35;;;;;;;3.90;1.73;;;;;;;17.24;31.45;100634.88;2061908;28;20046;-66
2022/01/07 04:21:38;;;;;;;4.18;1.80;;;;;;;17.22;31.59;100640.72;2061145;28;20113;-67
2022/01/07 04:22:45;;;;;;;6.03;1.75;;;;;;;17.24;31.44;100640.34;2061130;28;20490;-67
2022/01/07 04:23:48;;;;;;;2.97;1.70;;;;;;;17.24;31.36;100638.44;2063147;28;20050;-67
2022/01/07 04:24:54;;;;;;;4.03;1.63;;;;;;;17.24;31.18;100640.34;2062742;28;20061;-67
2022/01/07 04:25:59;;;;;;;5.80;1.73;;;;;;;17.24;31.49;100643.09;2062139;28;20053;-67
2022/01/07 04:27:03;;;;;;;3.00;1.73;;;;;;;17.23;31.50;100644.22;2062342;28;20057;-67
2022/01/07 04:28:09;;;;;;;6.97;2.00;;;;;;;17.24;31.52;100637.63;2062753;28;20077;-68
2022/01/07 04:29:12;;;;;;;4.15;1.63;;;;;;;17.25;31.28;100637.28;2062922;28;20076;-67
2022/01/07 04:30:18;;;;;;;4.80;1.80;;;;;;;17.26;31.33;100627.16;2062699;28;20054;-67
2022/01/07 04:31:23;;;;;;;3.45;1.60;;;;;;;17.26;31.48;100629.91;2062871;28;20065;-67
2022/01/07 04:32:27;;;;;;;4.47;1.90;;;;;;;17.26;31.40;100636.16;2061944;28;20050;-67
2022/01/07 04:33:34;;;;;;;3.47;1.60;;;;;;;17.25;31.23;100628.31;2062124;28;20750;-67
2022/01/07 04:34:38;;;;;;;3.28;1.85;;;;;;;17.23;31.32;100634.09;2062765;28;20058;-67
2022/01/07 04:35:45;;;;;;;5.30;1.85;;;;;;;17.23;31.43;100627.84;2066462;28;20383;-67
2022/01/07 04:36:51;;;;;;;4.30;1.70;;;;;;;17.22;31.50;100631.72;2070425;28;20510;-67
2022/01/07 04:37:57;;;;;;;5.68;1.90;;;;;;;17.19;31.53;100624.22;2070255;28;20062;-66
2022/01/07 04:39:02;;;;;;;4.15;1.60;;;;;;;17.19;31.35;100626.94;2070559;28;20046;-66
2022/01/07 04:40:08;;;;;;;5.57;2.03;;;;;;;17.07;31.73;100605.91;2070510;28;20056;-67
2022/01/07 04:41:13;;;;;;;4.25;1.55;;;;;;;17.21;31.44;100624.66;2070272;28;20045;-67
2022/01/07 04:42:16;;;;;;;4.85;1.65;;;;;;;17.09;31.84;100629.00;2070993;28;20414;-67
2022/01/07 04:43:21;;;;;;;5.50;2.30;;;;;;;17.20;31.71;100625.81;2070532;28;20071;-66
2022/01/07 04:44:25;;;;;;;4.88;2.28;;;;;;;17.22;31.50;100635.25;2070913;28;20050;-67
2022/01/07 04:45:30;;;;;;;6.20;2.40;;;;;;;17.24;31.29;100629.44;2070899;28;20058;-67
2022/01/07 04:46:34;;;;;;;4.15;1.77;;;;;;;17.22;31.59;100626.25;2070557;28;20056;-67
2022/01/07 04:47:40;;;;;;;7.28;2.15;;;;;;;17.21;31.50;100630.94;2070865;28;20056;-67
2022/01/07 04:48:43;;;;;;;5.93;2.15;;;;;;;17.19;31.53;100633.19;2071169;28;20061;-68
2022/01/07 04:49:48;;;;;;;5.93;2.22;;;;;;;17.19;31.39;100625.00;2070439;28;20053;-67
2022/01/07 04:50:55;;;;;;;4.40;2.00;;;;;;;17.21;31.57;100619.19;2070519;28;20049;-67
2022/01/07 04:52:03;;;;;;;5.38;2.00;;;;;;;17.17;31.44;100619.09;2070331;28;20052;-67
2022/01/07 04:53:17;;;;;;;6.57;2.28;;;;;;;17.18;31.38;100619.91;2070697;28;20057;-66
2022/01/07 04:54:24;;;;;;;3.25;2.15;;;;;;;17.17;31.59;100623.75;2071372;28;20061;-67
2022/01/07 04:55:36;;;;;;;5.10;2.30;;;;;;;17.14;31.58;100614.31;2070329;28;20506;-69
2022/01/07 04:56:40;;;;;;;6.28;2.38;;;;;;;17.16;31.51;100617.50;2070468;28;20050;-67
2022/01/07 04:57:45;;;;;;;5.50;2.20;;;;;;;17.17;31.58;100621.03;2070876;28;20061;-67
2022/01/07 04:58:50;;;;;;;7.57;2.20;;;;;;;17.14;31.64;100626.06;2070250;28;20058;-67
2022/01/07 04:59:54;;;;;;;3.05;1.92;;;;;;;17.13;31.58;100621.72;2070222;28;20057;-67
2022/01/07 05:02:19;;;;;;;5.03;2.10;;;;;;;17.16;31.61;100619.44;2071265;28;20069;-67
2022/01/07 05:03:22;;;;;;;5.40;2.28;;;;;;;17.18;31.35;100614.44;2070751;28;20058;-68
2022/01/07 05:04:27;;;;;;;3.65;2.00;;;;;;;17.16;31.32;100616.72;2069711;28;20057;-68
2022/01/07 05:05:32;;;;;;;6.88;2.03;;;;;;;17.20;31.45;100612.16;2062504;28;20058;-68
2022/01/07 05:06:45;;;;;;;8.15;2.15;;;;;;;17.18;31.74;100615.25;2069146;28;20518;-68